Time;durP1;ratioP1;P1;durP2;ratioP2;P2;SDS_P1;SDS_P2;PMS_P1;PMS_P2;Temp;Humidity;BMP_temperature;BMP_pressure;BME280_temperature;BME280_humidity;BME280_pressure;Samples;Min_cycle;Max_cycle;Signal;HPM_P1;HPM_P2
2023/01/15 00:00:58;;;;;;;20.00;5.65;;;;;;;;;;2080925;28;20034;-71
2023/01/15 00:02:17;;;;;;;18.05;5.78;;;;;;;;;;2078854;28;20029;-71
2023/01/15 00:03:36;;;;;;;17.40;5.93;;;;;;;;;;2080850;28;20029;-72
2023/01/15 00:04:55;;;;;;;23.00;6.63;;;;;;;;;;2078552;28;20037;-71
2023/01/15 00:06:17;;;;;;;17.92;5.47;;;;;;;;;;2079243;28;20042;-71
2023/01/15 00:07:36;;;;;;;18.02;6.32;;;;;;;;;;2079410;28;20059;-71
2023/01/15 00:08:55;;;;;;;19.35;6.20;;;;;;;;;;2079029;28;20905;-71
2023/01/15 00:10:14;;;;;;;16.08;5.30;;;;;;;;;;2078948;28;20502;-71
2023/01/15 00:11:33;;;;;;;15.80;5.50;;;;;;;;;;2078851;28;20037;-71
2023/01/15 00:12:52;;;;;;;20.15;5.88;;;;;;;;;;2081080;28;20060;-71
2023/01/15 00:14:11;;;;;;;10.98;5.03;;;;;;;;;;2077447;28;20050;-71
2023/01/15 00:15:30;;;;;;;22.50;6.32;;;;;;;;;;2075382;28;20037;-71
2023/01/15 00:16:50;;;;;;;12.88;5.50;;;;;;;;;;2079405;28;20030;-71
2023/01/15 00:18:09;;;;;;;14.23;5.80;;;;;;;;;;2081041;28;20026;-71
2023/01/15 00:19:28;;;;;;;18.70;5.63;;;;;;;;;;2080574;28;20041;-72
2023/01/15 00:20:47;;;;;;;14.23;5.40;;;;;;;;;;2080050;28;20141;-72
2023/01/15 00:22:06;;;;;;;19.42;5.70;;;;;;;;;;2078295;28;20025;-71
2023/01/15 00:28:18;;;;;;;16.42;5.00;;;;;;;;;;2078641;28;20112;-71
2023/01/15 00:29:37;;;;;;;16.08;5.25;;;;;;;;;;2078058;28;20471;-72
2023/01/15 00:30:56;;;;;;;16.50;5.30;;;;;;;;;;2079581;28;20033;-71
2023/01/15 00:32:15;;;;;;;16.55;5.07;;;;;;;;;;2077651;28;20029;-71
2023/01/15 00:33:34;;;;;;;10.15;4.82;;;;;;;;;;2081153;28;20108;-71
2023/01/15 00:34:53;;;;;;;15.10;5.25;;;;;;;;;;2079788;28;20037;-71
2023/01/15 00:36:13;;;;;;;11.73;4.90;;;;;;;;;;2078036;28;20514;-71
2023/01/15 00:37:32;;;;;;;8.95;3.95;;;;;;;;;;2076534;28;20029;-71
2023/01/15 00:38:51;;;;;;;15.60;4.82;;;;;;;;;;2076747;28;20037;-72
2023/01/15 00:40:11;;;;;;;14.98;4.25;;;;;;;;;;2078962;28;20046;-71
2023/01/15 00:41:30;;;;;;;14.43;4.38;;;;;;;;;;2077878;28;20438;-71
2023/01/15 00:42:48;;;;;;;13.70;4.30;;;;;;;;;;2076791;28;20461;-71
2023/01/15 00:44:08;;;;;;;9.23;4.10;;;;;;;;;;2078767;28;20474;-72
2023/01/15 00:45:26;;;;;;;13.32;4.13;;;;;;;;;;2074748;28;20030;-71
2023/01/15 00:46:46;;;;;;;10.38;3.45;;;;;;;;;;2076229;28;20124;-71
2023/01/15 00:48:05;;;;;;;15.18;4.45;;;;;;;;;;2078504;28;20113;-71
2023/01/15 00:49:24;;;;;;;14.07;4.63;;;;;;;;;;2074537;28;20656;-71
2023/01/15 00:50:43;;;;;;;11.75;3.45;;;;;;;;;;2078189;28;20037;-71
2023/01/15 00:52:02;;;;;;;8.40;3.83;;;;;;;;;;2077439;28;20029;-72
2023/01/15 00:53:21;;;;;;;13.63;3.95;;;;;;;;;;2080227;28;20021;-71
2023/01/15 00:54:40;;;;;;;16.20;3.83;;;;;;;;;;2077801;28;20018;-72
2023/01/15 00:55:59;;;;;;;8.90;3.42;;;;;;;;;;2079746;28;20030;-71
2023/01/15 00:57:17;;;;;;;7.63;2.95;;;;;;;;;;2080786;28;20029;-71
2023/01/15 00:58:36;;;;;;;10.88;3.42;;;;;;;;;;2077754;28;20113;-71
2023/01/15 00:59:55;;;;;;;12.70;3.50;;;;;;;;;;2079298;28;20116;-71
2023/01/15 01:01:14;;;;;;;6.80;2.70;;;;;;;;;;2079967;28;20665;-71
2023/01/15 01:02:33;;;;;;;8.77;2.80;;;;;;;;;;2079783;28;20038;-71
2023/01/15 01:03:52;;;;;;;7.75;2.80;;;;;;;;;;2080140;28;20048;-71
2023/01/15 01:05:11;;;;;;;9.95;2.63;;;;;;;;;;2077652;28;20487;-71
2023/01/15 01:06:30;;;;;;;6.32;2.30;;;;;;;;;;2078262;28;20037;-71
2023/01/15 01:07:49;;;;;;;5.85;2.35;;;;;;;;;;2079108;28;21445;-72
2023/01/15 01:09:11;;;;;;;5.68;2.38;;;;;;;;;;2080931;28;20448;-71
2023/01/15 01:10:30;;;;;;;5.32;2.42;;;;;;;;;;2078684;28;20029;-71
2023/01/15 01:11:49;;;;;;;6.82;2.80;;;;;;;;;;2077379;28;20037;-71
2023/01/15 01:13:09;;;;;;;5.05;2.50;;;;;;;;;;2081194;28;20029;-71
2023/01/15 01:14:27;;;;;;;6.28;2.10;;;;;;;;;;2079995;28;20026;-72
2023/01/15 01:15:46;;;;;;;2.95;2.10;;;;;;;;;;2078429;28;20037;-71
2023/01/15 01:17:05;;;;;;;5.80;1.80;;;;;;;;;;2077889;28;20030;-71
2023/01/15 01:18:24;;;;;;;6.57;2.40;;;;;;;;;;2078956;28;20048;-71
2023/01/15 01:19:43;;;;;;;6.72;2.35;;;;;;;;;;2080647;28;20026;-71
2023/01/15 01:21:03;;;;;;;9.90;2.25;;;;;;;;;;2081160;28;20045;-71
2023/01/15 01:22:22;;;;;;;5.43;2.30;;;;;;;;;;2077210;28;20479;-71
2023/01/15 01:23:41;;;;;;;7.60;2.15;;;;;;;;;;2076739;28;20034;-71
2023/01/15 01:25:00;;;;;;;7.10;1.83;;;;;;;;;;2080480;28;20029;-71
2023/01/15 01:26:19;;;;;;;5.28;1.90;;;;;;;;;;2076281;28;20583;-71
2023/01/15 01:27:38;;;;;;;5.43;1.90;;;;;;;;;;2078925;28;20029;-71
2023/01/15 01:28:57;;;;;;;5.95;2.60;;;;;;;;;;2079954;28;20045;-71
2023/01/15 01:30:16;;;;;;;3.88;1.80;;;;;;;;;;2074795;28;20030;-71
2023/01/15 01:31:35;;;;;;;7.53;2.00;;;;;;;;;;2076947;28;20029;-71
2023/01/15 01:32:54;;;;;;;4.55;2.63;;;;;;;;;;2078893;28;20030;-71
2023/01/15 01:34:13;;;;;;;3.88;1.80;;;;;;;;;;2077652;28;20055;-71
2023/01/15 01:35:32;;;;;;;4.60;2.20;;;;;;;;;;2078472;28;20065;-71
2023/01/15 01:36:51;;;;;;;3.65;2.15;;;;;;;;;;2079278;28;20021;-71
2023/01/15 01:38:10;;;;;;;5.38;2.25;;;;;;;;;;2076518;28;20037;-71
2023/01/15 01:39:29;;;;;;;4.93;1.95;;;;;;;;;;2082484;28;20417;-72
2023/01/15 01:40:48;;;;;;;4.05;2.00;;;;;;;;;;2077819;28;20046;-71
2023/01/15 01:42:14;;;;;;;4.50;2.47;;;;;;;;;;2078537;28;20045;-71
2023/01/15 01:43:53;;;;;;;3.90;2.38;;;;;;;;;;2078129;28;20037;-71
2023/01/15 01:45:23;;;;;;;4.90;2.00;;;;;;;;;;2078731;28;20030;-71
2023/01/15 01:46:42;;;;;;;6.50;2.08;;;;;;;;;;2075670;28;20046;-71
2023/01/15 01:48:04;;;;;;;4.57;2.17;;;;;;;;;;2079114;28;20030;-71
2023/01/15 01:49:23;;;;;;;3.53;2.20;;;;;;;;;;2079724;28;20033;-71
2023/01/15 01:50:42;;;;;;;2.78;1.92;;;;;;;;;;2076674;28;20481;-71
2023/01/15 01:52:06;;;;;;;6.00;2.40;;;;;;;;;;2078663;28;20034;-71
2023/01/15 01:53:27;;;;;;;6.72;2.50;;;;;;;;;;2077087;28;20041;-71
2023/01/15 01:54:48;;;;;;;5.72;2.25;;;;;;;;;;2076478;28;20034;-71
2023/01/15 01:56:07;;;;;;;5.53;2.42;;;;;;;;;;2078210;28;20037;-71
2023/01/15 01:57:27;;;;;;;4.88;2.03;;;;;;;;;;2076530;28;20485;-71
2023/01/15 01:58:50;;;;;;;5.07;2.40;;;;;;;;;;2077999;28;20041;-71
2023/01/15 02:00:10;;;;;;;4.97;2.42;;;;;;;;;;2076029;28;20141;-71
2023/01/15 02:01:29;;;;;;;3.78;2.17;;;;;;;;;;2080081;28;20029;-71
2023/01/15 02:02:48;;;;;;;4.65;2.08;;;;;;;;;;2076450;28;20037;-71
2023/01/15 02:04:09;;;;;;;4.47;2.50;;;;;;;;;;2079356;28;20057;-71
2023/01/15 02:05:32;;;;;;;2.78;1.80;;;;;;;;;;2079024;28;20034;-71
2023/01/15 02:06:51;;;;;;;2.33;1.90;;;;;;;;;;2079490;28;20100;-72
2023/01/15 02:08:10;;;;;;;3.42;2.42;;;;;;;;;;2076763;28;20526;-71
2023/01/15 02:09:29;;;;;;;5.00;1.98;;;;;;;;;;2078650;28;20410;-71
2023/01/15 02:10:51;;;;;;;3.15;2.08;;;;;;;;;;2078342;28;20037;-71
2023/01/15 02:12:15;;;;;;;3.45;1.70;;;;;;;;;;2077861;28;20026;-71
2023/01/15 02:13:38;;;;;;;1.90;1.70;;;;;;;;;;2076676;28;20104;-71
2023/01/15 02:15:15;;;;;;;6.43;2.05;;;;;;;;;;2079198;28;20429;-71
2023/01/15 02:16:40;;;;;;;1.83;1.60;;;;;;;;;;2078418;28;20068;-71
2023/01/15 02:18:01;;;;;;;3.70;1.75;;;;;;;;;;2080419;28;20064;-71
2023/01/15 02:19:42;;;;;;;3.25;1.90;;;;;;;;;;2080234;28;20025;-70
2023/01/15 02:21:24;;;;;;;2.92;1.63;;;;;;;;;;2078362;28;20406;-71
2023/01/15 02:23:01;;;;;;;2.17;1.58;;;;;;;;;;2078106;28;20033;-71
2023/01/15 02:24:26;;;;;;;3.42;1.92;;;;;;;;;;2075432;28;20429;-71
2023/01/15 02:25:48;;;;;;;3.10;1.50;;;;;;;;;;2078302;28;20033;-71
2023/01/15 02:27:19;;;;;;;2.83;2.15;;;;;;;;;;2077604;28;20038;-72
2023/01/15 02:28:43;;;;;;;2.55;1.83;;;;;;;;;;2077675;28;20030;-71
2023/01/15 02:30:14;;;;;;;2.83;1.70;;;;;;;;;;2078986;28;20024;-71
2023/01/15 02:31:36;;;;;;;4.78;1.98;;;;;;;;;;2076574;28;20081;-71
2023/01/15 02:32:57;;;;;;;3.63;1.60;;;;;;;;;;2075406;28;20402;-72
2023/01/15 02:34:21;;;;;;;2.15;1.73;;;;;;;;;;2076463;28;20116;-71
2023/01/15 02:35:43;;;;;;;4.45;1.58;;;;;;;;;;2081388;28;20429;-71
2023/01/15 02:37:09;;;;;;;3.63;1.52;;;;;;;;;;2079519;28;20397;-71
2023/01/15 02:38:30;;;;;;;4.22;1.55;;;;;;;;;;2076233;28;20037;-72
2023/01/15 02:39:50;;;;;;;2.28;1.60;;;;;;;;;;2080244;28;20120;-71
2023/01/15 02:41:15;;;;;;;3.25;1.50;;;;;;;;;;2078681;28;20398;-72
2023/01/15 02:42:35;;;;;;;2.40;1.58;;;;;;;;;;2078267;28;20393;-71
2023/01/15 02:43:55;;;;;;;3.25;1.70;;;;;;;;;;2078540;28;20041;-71
2023/01/15 02:45:16;;;;;;;4.28;1.58;;;;;;;;;;2076750;28;20033;-72
2023/01/15 02:46:36;;;;;;;3.58;1.38;;;;;;;;;;2077256;28;20062;-71
2023/01/15 02:47:57;;;;;;;1.58;1.00;;;;;;;;;;2077220;28;20041;-72
2023/01/15 02:49:18;;;;;;;2.50;1.27;;;;;;;;;;2080262;28;20042;-71
2023/01/15 02:50:41;;;;;;;2.55;1.10;;;;;;;;;;2076749;28;20112;-72
2023/01/15 02:52:13;;;;;;;2.83;1.40;;;;;;;;;;2073933;28;20025;-71
2023/01/15 02:53:34;;;;;;;2.30;1.20;;;;;;;;;;2076115;28;20065;-71
2023/01/15 02:54:59;;;;;;;1.77;1.20;;;;;;;;;;2078654;28;20041;-72
2023/01/15 02:56:21;;;;;;;2.10;1.00;;;;;;;;;;2078038;28;20034;-71
2023/01/15 02:57:41;;;;;;;1.25;0.82;;;;;;;;;;2077350;28;20034;-71
2023/01/15 02:59:03;;;;;;;5.03;1.50;;;;;;;;;;2078388;28;20030;-72
2023/01/15 03:00:23;;;;;;;2.17;1.20;;;;;;;;;;2077053;28;20872;-72
2023/01/15 03:01:45;;;;;;;1.92;0.90;;;;;;;;;;2077239;28;20025;-72
2023/01/15 03:03:13;;;;;;;2.42;1.00;;;;;;;;;;2078670;28;20033;-71
2023/01/15 03:04:37;;;;;;;2.80;1.08;;;;;;;;;;2078619;28;20021;-71
2023/01/15 03:05:59;;;;;;;1.70;1.10;;;;;;;;;;2078827;28;20033;-71
2023/01/15 03:07:18;;;;;;;1.67;1.13;;;;;;;;;;2076599;28;20025;-71
2023/01/15 03:08:37;;;;;;;1.80;1.00;;;;;;;;;;2077565;28;20045;-71
2023/01/15 03:09:56;;;;;;;3.08;1.10;;;;;;;;;;2076058;28;20033;-72
2023/01/15 03:11:17;;;;;;;2.42;1.10;;;;;;;;;;2079060;28;20069;-72
2023/01/15 03:13:03;;;;;;;1.92;1.02;;;;;;;;;;2076628;28;20022;-72
2023/01/15 03:14:34;;;;;;;3.08;1.08;;;;;;;;;;2071200;28;20112;-72
2023/01/15 03:18:07;;;;;;;3.05;1.10;;;;;;;;;;2077490;28;20490;-72
2023/01/15 03:19:28;;;;;;;1.33;1.00;;;;;;;;;;2077374;28;20025;-73
2023/01/15 03:20:50;;;;;;;4.03;1.08;;;;;;;;;;2076497;28;20034;-72
2023/01/15 03:22:18;;;;;;;2.22;1.15;;;;;;;;;;2077304;28;20030;-71
2023/01/15 03:23:38;;;;;;;2.13;1.40;;;;;;;;;;2075406;28;20088;-71
2023/01/15 03:25:21;;;;;;;1.50;1.05;;;;;;;;;;2080069;28;20037;-71
2023/01/15 03:26:41;;;;;;;1.75;0.95;;;;;;;;;;2076599;28;20021;-72
2023/01/15 03:28:01;;;;;;;2.95;1.38;;;;;;;;;;2074938;28;20034;-71
2023/01/15 03:29:23;;;;;;;2.42;0.93;;;;;;;;;;2077640;28;20061;-74
2023/01/15 03:30:42;;;;;;;3.15;1.00;;;;;;;;;;2074947;28;20497;-71
2023/01/15 03:32:01;;;;;;;1.98;1.10;;;;;;;;;;2078639;28;20029;-73
2023/01/15 03:33:20;;;;;;;3.75;1.90;;;;;;;;;;2077263;28;20034;-70
2023/01/15 03:34:46;;;;;;;2.00;1.17;;;;;;;;;;2078747;28;20021;-71
2023/01/15 03:36:06;;;;;;;3.38;1.17;;;;;;;;;;2076109;28;20105;-71
2023/01/15 03:37:26;;;;;;;2.70;0.90;;;;;;;;;;2077250;28;20033;-71
2023/01/15 03:38:49;;;;;;;2.58;1.23;;;;;;;;;;2078486;28;20041;-71
2023/01/15 03:40:08;;;;;;;1.38;1.15;;;;;;;;;;2075789;28;20042;-71
2023/01/15 03:41:51;;;;;;;3.92;1.65;;;;;;;;;;2078819;28;20534;-72
2023/01/15 03:44:56;;;;;;;3.08;1.33;;;;;;;;;;2079492;28;20030;-72
2023/01/15 03:46:18;;;;;;;1.35;1.20;;;;;;;;;;2077379;28;20057;-72
2023/01/15 03:47:53;;;;;;;2.85;1.40;;;;;;;;;;2079672;28;20038;-72
2023/01/15 03:49:20;;;;;;;2.10;1.00;;;;;;;;;;2076260;28;20053;-72
2023/01/15 03:50:46;;;;;;;1.92;1.17;;;;;;;;;;2076807;28;20037;-72
2023/01/15 03:52:18;;;;;;;1.30;0.88;;;;;;;;;;2079868;28;20030;-72
2023/01/15 03:53:53;;;;;;;1.77;1.00;;;;;;;;;;2078335;28;20033;-72
2023/01/15 03:55:18;;;;;;;3.25;1.20;;;;;;;;;;2078983;28;20057;-72
2023/01/15 03:56:54;;;;;;;2.67;1.23;;;;;;;;;;2078057;28;20037;-72
2023/01/15 03:58:18;;;;;;;1.73;1.27;;;;;;;;;;2079228;28;20034;-72
2023/01/15 03:59:39;;;;;;;2.47;1.35;;;;;;;;;;2080128;28;20030;-72
2023/01/15 04:01:00;;;;;;;2.10;1.10;;;;;;;;;;2079065;28;20026;-72
2023/01/15 04:02:20;;;;;;;1.88;1.20;;;;;;;;;;2079896;28;20054;-73
2023/01/15 04:03:40;;;;;;;2.35;1.20;;;;;;;;;;2076551;28;20038;-72
2023/01/15 04:04:59;;;;;;;1.10;0.95;;;;;;;;;;2080055;28;20498;-72
2023/01/15 04:06:18;;;;;;;2.42;1.10;;;;;;;;;;2077790;28;20034;-72
2023/01/15 04:07:38;;;;;;;4.47;1.50;;;;;;;;;;2078008;28;20482;-72
2023/01/15 04:08:58;;;;;;;1.30;1.17;;;;;;;;;;2079957;28;20049;-72
2023/01/15 04:10:17;;;;;;;1.98;1.00;;;;;;;;;;2079295;28;20025;-72
2023/01/15 04:11:36;;;;;;;2.53;1.40;;;;;;;;;;2079467;28;20433;-72
2023/01/15 04:12:55;;;;;;;1.80;1.00;;;;;;;;;;2077392;28;20038;-72
2023/01/15 04:14:14;;;;;;;2.13;1.20;;;;;;;;;;2076376;28;20030;-72
2023/01/15 04:15:33;;;;;;;3.50;1.42;;;;;;;;;;2078224;28;20030;-72
2023/01/15 04:16:52;;;;;;;1.92;1.02;;;;;;;;;;2078285;28;20026;-72
2023/01/15 04:18:11;;;;;;;1.40;1.13;;;;;;;;;;2076742;28;20034;-72
2023/01/15 04:19:30;;;;;;;1.92;1.67;;;;;;;;;;2078151;28;20651;-72
2023/01/15 04:20:50;;;;;;;2.90;1.50;;;;;;;;;;2078416;28;20041;-72
2023/01/15 04:22:10;;;;;;;3.83;1.67;;;;;;;;;;2076549;28;20026;-72
2023/01/15 04:23:29;;;;;;;4.60;1.23;;;;;;;;;;2077906;28;20037;-73
2023/01/15 04:24:48;;;;;;;2.78;1.40;;;;;;;;;;2074776;28;20029;-72
2023/01/15 04:26:07;;;;;;;1.38;1.10;;;;;;;;;;2076863;28;20025;-72
2023/01/15 04:27:26;;;;;;;1.80;1.20;;;;;;;;;;2076591;28;20033;-71
2023/01/15 04:28:45;;;;;;;1.67;1.55;;;;;;;;;;2075915;28;20026;-71
2023/01/15 04:30:04;;;;;;;2.35;1.48;;;;;;;;;;2076371;28;20025;-71
2023/01/15 04:31:23;;;;;;;1.90;1.23;;;;;;;;;;2078062;28;20589;-72
2023/01/15 04:32:42;;;;;;;4.30;1.20;;;;;;;;;;2078170;28;20025;-73
2023/01/15 04:34:01;;;;;;;1.75;1.10;;;;;;;;;;2076241;28;20064;-71
2023/01/15 04:35:20;;;;;;;1.65;1.27;;;;;;;;;;2080263;28;20482;-72
2023/01/15 04:36:39;;;;;;;1.98;1.63;;;;;;;;;;2078878;28;20030;-72
2023/01/15 04:37:58;;;;;;;3.20;1.13;;;;;;;;;;2079484;28;20100;-72
2023/01/15 04:39:17;;;;;;;4.13;1.35;;;;;;;;;;2080765;28;20041;-71
2023/01/15 04:44:07;;;;;;;3.33;0.95;;;;;;;;;;2077436;28;20037;-72
2023/01/15 04:45:27;;;;;;;3.85;1.05;;;;;;;;;;2076697;28;20038;-72
2023/01/15 04:46:47;;;;;;;3.55;1.10;;;;;;;;;;2078106;28;20058;-73
2023/01/15 04:48:06;;;;;;;3.50;1.10;;;;;;;;;;2078630;28;20090;-72
2023/01/15 04:49:25;;;;;;;3.22;0.90;;;;;;;;;;2078680;28;20037;-71
2023/01/15 04:50:44;;;;;;;4.00;1.27;;;;;;;;;;2078933;28;20605;-71
2023/01/15 04:52:04;;;;;;;3.95;1.38;;;;;;;;;;2078172;28;20033;-72
2023/01/15 04:53:24;;;;;;;3.30;1.08;;;;;;;;;;2080889;28;20029;-72
2023/01/15 04:54:43;;;;;;;3.50;1.10;;;;;;;;;;2081767;28;20506;-72
2023/01/15 04:56:05;;;;;;;4.43;1.30;;;;;;;;;;2078777;28;20030;-71
2023/01/15 04:57:24;;;;;;;1.73;1.00;;;;;;;;;;2081305;28;20033;-72
2023/01/15 04:58:43;;;;;;;4.47;0.90;;;;;;;;;;2078105;28;20021;-72
2023/01/15 05:00:02;;;;;;;4.60;1.10;;;;;;;;;;2076532;28;20038;-72
2023/01/15 05:01:21;;;;;;;1.85;0.95;;;;;;;;;;2080412;28;20030;-72
2023/01/15 05:02:40;;;;;;;1.10;0.60;;;;;;;;;;2080413;28;20040;-72
2023/01/15 05:03:59;;;;;;;3.33;0.93;;;;;;;;;;2079915;28;20041;-72
2023/01/15 05:05:18;;;;;;;2.25;1.02;;;;;;;;;;2079373;28;20030;-72
2023/01/15 05:06:37;;;;;;;1.50;0.98;;;;;;;;;;2077158;28;20438;-72
2023/01/15 05:07:55;;;;;;;2.10;0.68;;;;;;;;;;2081001;28;20124;-72
2023/01/15 05:09:15;;;;;;;1.13;0.90;;;;;;;;;;2080750;28;20506;-72
2023/01/15 05:10:34;;;;;;;1.42;0.85;;;;;;;;;;2078828;28;20465;-72
2023/01/15 05:11:53;;;;;;;2.50;0.70;;;;;;;;;;2079535;28;20042;-71
2023/01/15 05:13:12;;;;;;;0.93;0.55;;;;;;;;;;2077888;28;20018;-72
2023/01/15 05:14:31;;;;;;;0.70;0.50;;;;;;;;;;2075960;28;20037;-72
2023/01/15 05:15:50;;;;;;;2.05;0.90;;;;;;;;;;2079095;28;20112;-72
2023/01/15 05:17:09;;;;;;;1.83;0.70;;;;;;;;;;2080853;28;20038;-72
2023/01/15 05:18:28;;;;;;;1.55;0.80;;;;;;;;;;2079564;28;20061;-72
2023/01/15 05:19:47;;;;;;;2.00;0.75;;;;;;;;;;2080954;28;20026;-72
2023/01/15 05:21:12;;;;;;;4.68;0.68;;;;;;;;;;2079741;28;20084;-71
2023/01/15 05:22:31;;;;;;;1.20;0.77;;;;;;;;;;2079032;28;20050;-72
2023/01/15 05:23:50;;;;;;;2.15;0.95;;;;;;;;;;2078518;28;20057;-72
2023/01/15 05:25:09;;;;;;;1.73;0.88;;;;;;;;;;2077608;28;20506;-72
2023/01/15 05:26:29;;;;;;;2.55;1.40;;;;;;;;;;2077865;28;20037;-72
2023/01/15 05:27:48;;;;;;;0.75;0.63;;;;;;;;;;2078634;28;20109;-72
2023/01/15 05:29:09;;;;;;;1.50;0.57;;;;;;;;;;2076886;28;20394;-72
2023/01/15 05:30:28;;;;;;;0.63;0.55;;;;;;;;;;2076249;28;20041;-72
2023/01/15 05:31:47;;;;;;;1.45;0.90;;;;;;;;;;2079929;28;20505;-72
2023/01/15 05:33:06;;;;;;;0.98;0.70;;;;;;;;;;2080471;28;20034;-72
2023/01/15 05:34:24;;;;;;;1.40;0.52;;;;;;;;;;2076300;28;20037;-72
2023/01/15 05:35:43;;;;;;;0.82;0.60;;;;;;;;;;2076976;28;20037;-72
2023/01/15 05:37:02;;;;;;;1.77;0.60;;;;;;;;;;2079205;28;20397;-72
2023/01/15 05:38:21;;;;;;;1.50;0.50;;;;;;;;;;2078282;28;20482;-72
2023/01/15 05:39:40;;;;;;;3.75;0.70;;;;;;;;;;2078490;28;20029;-72
2023/01/15 05:41:02;;;;;;;1.50;0.50;;;;;;;;;;2079666;28;20030;-72
2023/01/15 05:42:21;;;;;;;2.53;0.65;;;;;;;;;;2078646;28;20029;-71
2023/01/15 05:43:40;;;;;;;1.30;0.70;;;;;;;;;;2079073;28;20045;-72
2023/01/15 05:44:59;;;;;;;4.35;0.63;;;;;;;;;;2079047;28;20022;-72
2023/01/15 05:46:18;;;;;;;1.98;0.40;;;;;;;;;;2077457;28;20045;-72
2023/01/15 05:47:37;;;;;;;1.45;0.50;;;;;;;;;;2078225;28;20113;-72
2023/01/15 05:49:00;;;;;;;2.67;0.52;;;;;;;;;;2078668;28;20029;-72
2023/01/15 05:50:18;;;;;;;1.70;0.65;;;;;;;;;;2077220;28;21791;-72
2023/01/15 05:51:38;;;;;;;1.50;0.40;;;;;;;;;;2080135;28;20030;-72
2023/01/15 05:52:57;;;;;;;2.90;0.57;;;;;;;;;;2078933;28;20034;-72
2023/01/15 05:54:17;;;;;;;2.25;0.70;;;;;;;;;;2076432;28;20025;-72
2023/01/15 05:55:36;;;;;;;0.95;0.55;;;;;;;;;;2079083;28;20056;-72
2023/01/15 05:56:55;;;;;;;0.68;0.38;;;;;;;;;;2078467;28;20038;-72
2023/01/15 05:58:14;;;;;;;0.90;0.55;;;;;;;;;;2077823;28;20037;-72
2023/01/15 05:59:33;;;;;;;1.42;0.40;;;;;;;;;;2078057;28;20033;-71
2023/01/15 06:00:53;;;;;;;1.40;0.70;;;;;;;;;;2077265;28;20030;-71
2023/01/15 06:02:12;;;;;;;0.95;0.47;;;;;;;;;;2077452;28;20100;-71
2023/01/15 06:03:31;;;;;;;1.80;0.32;;;;;;;;;;2077463;28;20395;-72
2023/01/15 06:04:50;;;;;;;0.63;0.20;;;;;;;;;;2078906;28;20025;-71
2023/01/15 06:06:12;;;;;;;1.85;0.32;;;;;;;;;;2076797;28;20033;-71
2023/01/15 06:07:31;;;;;;;2.45;0.50;;;;;;;;;;2076735;28;20026;-72
2023/01/15 06:08:50;;;;;;;0.30;0.30;;;;;;;;;;2074678;28;20394;-72
2023/01/15 06:10:09;;;;;;;2.10;0.40;;;;;;;;;;2077063;28;20041;-71
2023/01/15 06:11:28;;;;;;;1.65;0.40;;;;;;;;;;2079089;28;20406;-72
2023/01/15 06:12:47;;;;;;;0.47;0.38;;;;;;;;;;2076920;28;20116;-71
2023/01/15 06:14:07;;;;;;;1.80;0.43;;;;;;;;;;2077528;28;20532;-71
2023/01/15 06:15:25;;;;;;;0.47;0.35;;;;;;;;;;2078908;28;20041;-71
2023/01/15 06:16:45;;;;;;;2.53;0.52;;;;;;;;;;2075550;28;20401;-71
2023/01/15 06:18:04;;;;;;;0.30;0.28;;;;;;;;;;2077853;28;20061;-71
2023/01/15 06:19:23;;;;;;;0.52;0.30;;;;;;;;;;2078412;28;20029;-71
2023/01/15 06:20:42;;;;;;;0.43;0.30;;;;;;;;;;2079459;28;20029;-71
2023/01/15 06:22:02;;;;;;;2.70;0.30;;;;;;;;;;2080260;28;20037;-71
2023/01/15 06:23:21;;;;;;;1.58;0.40;;;;;;;;;;2078096;28;20034;-72
2023/01/15 06:24:40;;;;;;;1.65;0.40;;;;;;;;;;2075888;28;20148;-72
2023/01/15 06:26:00;;;;;;;1.27;0.40;;;;;;;;;;2077524;28;20467;-71
2023/01/15 06:27:19;;;;;;;1.33;0.20;;;;;;;;;;2077460;28;20033;-72
2023/01/15 06:28:38;;;;;;;0.85;0.40;;;;;;;;;;2076092;28;20029;-71
2023/01/15 06:29:57;;;;;;;1.08;0.40;;;;;;;;;;2076758;28;22812;-72
2023/01/15 06:31:18;;;;;;;0.50;0.30;;;;;;;;;;2079294;28;20041;-71
2023/01/15 06:32:37;;;;;;;0.63;0.50;;;;;;;;;;2080081;28;20053;-71
2023/01/15 06:33:56;;;;;;;1.33;0.30;;;;;;;;;;2078257;28;20069;-71
2023/01/15 06:35:15;;;;;;;1.83;0.35;;;;;;;;;;2080193;28;20033;-71
2023/01/15 06:36:34;;;;;;;0.40;0.40;;;;;;;;;;2077546;28;20029;-71
2023/01/15 06:37:53;;;;;;;0.88;0.30;;;;;;;;;;2078633;28;20065;-71
2023/01/15 06:39:12;;;;;;;0.30;0.30;;;;;;;;;;2080794;28;20101;-71
2023/01/15 06:40:31;;;;;;;0.30;0.30;;;;;;;;;;2079220;28;20510;-71
2023/01/15 06:48:26;;;;;;;0.45;0.30;;;;;;;;;;2080501;28;20033;-72
2023/01/15 06:49:45;;;;;;;0.30;0.30;;;;;;;;;;2078760;28;20470;-71
2023/01/15 06:51:04;;;;;;;0.85;0.30;;;;;;;;;;2074141;28;20040;-71
2023/01/15 06:52:24;;;;;;;0.55;0.30;;;;;;;;;;2080289;28;20060;-71
2023/01/15 06:53:43;;;;;;;0.82;0.30;;;;;;;;;;2081962;28;20033;-72
2023/01/15 06:55:02;;;;;;;0.40;0.40;;;;;;;;;;2077960;28;20041;-71
2023/01/15 06:56:21;;;;;;;0.45;0.20;;;;;;;;;;2078123;28;20029;-71
2023/01/15 06:57:40;;;;;;;1.30;0.30;;;;;;;;;;2079380;28;20049;-71
2023/01/15 06:58:59;;;;;;;0.45;0.30;;;;;;;;;;2076716;28;20514;-71
2023/01/15 07:00:18;;;;;;;0.40;0.20;;;;;;;;;;2077074;28;20073;-71
2023/01/15 07:01:37;;;;;;;0.47;0.20;;;;;;;;;;2079354;28;20029;-71
2023/01/15 07:03:00;;;;;;;1.23;0.30;;;;;;;;;;2081121;28;20029;-71
2023/01/15 07:04:19;;;;;;;2.63;0.50;;;;;;;;;;2078334;28;20037;-71
2023/01/15 07:05:38;;;;;;;1.85;0.70;;;;;;;;;;2079835;28;20025;-72
2023/01/15 07:06:57;;;;;;;1.42;0.80;;;;;;;;;;2076539;28;20030;-71
2023/01/15 07:08:16;;;;;;;1.33;0.40;;;;;;;;;;2078236;28;20029;-70
2023/01/15 07:09:35;;;;;;;1.98;0.47;;;;;;;;;;2081179;28;20060;-72
2023/01/15 07:10:54;;;;;;;2.78;0.47;;;;;;;;;;2081136;28;20029;-71
2023/01/15 07:12:13;;;;;;;2.85;0.60;;;;;;;;;;2079352;28;20018;-71
2023/01/15 07:13:32;;;;;;;1.65;0.32;;;;;;;;;;2078406;28;20565;-71
2023/01/15 07:14:51;;;;;;;4.10;0.60;;;;;;;;;;2078450;28;20450;-71
2023/01/15 07:16:25;;;;;;;3.85;0.60;;;;;;;;;;2076432;28;20069;-71
2023/01/15 07:17:44;;;;;;;1.52;0.50;;;;;;;;;;2080765;28;20033;-72
2023/01/15 07:19:03;;;;;;;5.68;0.88;;;;;;;;;;2078964;28;20390;-73
2023/01/15 07:20:22;;;;;;;3.33;0.57;;;;;;;;;;2081120;28;21631;-73
2023/01/15 07:21:41;;;;;;;4.43;0.50;;;;;;;;;;2078793;28;20037;-74
2023/01/15 07:23:00;;;;;;;2.67;0.68;;;;;;;;;;2075492;28;20029;-73
2023/01/15 07:24:19;;;;;;;4.15;1.10;;;;;;;;;;2075491;28;20124;-73
2023/01/15 07:25:38;;;;;;;6.25;0.68;;;;;;;;;;2079050;28;20022;-72
2023/01/15 07:26:57;;;;;;;3.17;0.70;;;;;;;;;;2079274;28;20072;-72
2023/01/15 07:28:15;;;;;;;5.63;0.98;;;;;;;;;;2078747;28;20037;-72
2023/01/15 07:29:34;;;;;;;1.85;0.57;;;;;;;;;;2076678;28;20033;-72
2023/01/15 07:30:56;;;;;;;2.67;0.70;;;;;;;;;;2075689;28;20053;-71
2023/01/15 07:32:16;;;;;;;3.10;0.68;;;;;;;;;;2078544;28;20022;-72
2023/01/15 07:33:34;;;;;;;4.18;0.60;;;;;;;;;;2076122;28;20046;-71
2023/01/15 07:34:54;;;;;;;3.45;0.95;;;;;;;;;;2077445;28;20021;-72
2023/01/15 07:36:13;;;;;;;1.95;0.50;;;;;;;;;;2078538;28;20034;-72
2023/01/15 07:37:32;;;;;;;2.22;0.63;;;;;;;;;;2078514;28;20037;-72
2023/01/15 07:38:51;;;;;;;4.13;0.80;;;;;;;;;;2076081;28;20029;-71
2023/01/15 07:40:10;;;;;;;2.20;0.60;;;;;;;;;;2077021;28;20100;-71
2023/01/15 07:49:47;;;;;;;3.90;0.80;;;;;;;;;;2077045;28;20038;-71
2023/01/15 07:51:06;;;;;;;8.35;1.88;;;;;;;;;;2077170;28;20033;-72
2023/01/15 07:52:25;;;;;;;6.20;0.80;;;;;;;;;;2076556;28;20422;-71
2023/01/15 07:53:44;;;;;;;5.88;0.90;;;;;;;;;;2076013;28;20030;-71
2023/01/15 07:55:03;;;;;;;2.17;0.43;;;;;;;;;;2077359;28;20097;-71
2023/01/15 07:56:22;;;;;;;2.47;0.70;;;;;;;;;;2076265;28;20029;-72
2023/01/15 07:57:41;;;;;;;4.80;1.25;;;;;;;;;;2076106;28;20100;-71
2023/01/15 07:59:00;;;;;;;3.17;0.80;;;;;;;;;;2074733;28;20029;-71
2023/01/15 08:00:20;;;;;;;4.70;0.73;;;;;;;;;;2077316;28;20034;-71
2023/01/15 08:01:40;;;;;;;4.68;0.63;;;;;;;;;;2079092;28;20030;-71
2023/01/15 08:02:59;;;;;;;2.42;0.50;;;;;;;;;;2076851;28;20494;-71
2023/01/15 08:04:18;;;;;;;5.50;1.25;;;;;;;;;;2076765;28;20037;-71
2023/01/15 08:05:37;;;;;;;3.20;0.65;;;;;;;;;;2077498;28;20405;-71
2023/01/15 08:06:57;;;;;;;2.85;0.50;;;;;;;;;;2079215;28;20037;-71
2023/01/15 08:08:17;;;;;;;4.97;0.98;;;;;;;;;;2081291;28;20029;-72
2023/01/15 08:09:36;;;;;;;4.90;1.08;;;;;;;;;;2080942;28;20025;-71
2023/01/15 08:15:53;;;;;;;4.85;0.65;;;;;;;;;;2075675;28;20026;-72
2023/01/15 08:17:12;;;;;;;4.05;0.55;;;;;;;;;;2079975;28;20026;-71
2023/01/15 08:18:31;;;;;;;3.35;0.70;;;;;;;;;;2079032;28;20093;-72
2023/01/15 08:19:50;;;;;;;4.05;0.75;;;;;;;;;;2079986;28;20033;-71
2023/01/15 08:21:12;;;;;;;4.88;1.13;;;;;;;;;;2078361;28;20030;-72
2023/01/15 08:22:31;;;;;;;7.38;1.17;;;;;;;;;;2080538;28;20029;-71
2023/01/15 08:23:50;;;;;;;8.52;1.20;;;;;;;;;;2079754;28;20494;-72
2023/01/15 08:25:10;;;;;;;1.95;0.60;;;;;;;;;;2078767;28;20116;-71
2023/01/15 08:26:29;;;;;;;3.58;0.60;;;;;;;;;;2080666;28;20105;-71
2023/01/15 08:27:48;;;;;;;9.35;1.00;;;;;;;;;;2079959;28;20486;-71
2023/01/15 08:29:07;;;;;;;2.20;0.70;;;;;;;;;;2078516;28;20034;-71
2023/01/15 08:30:26;;;;;;;2.55;0.50;;;;;;;;;;2079380;28;20108;-71
2023/01/15 08:31:45;;;;;;;2.95;0.88;;;;;;;;;;2079200;28;20455;-71
2023/01/15 08:33:04;;;;;;;4.55;0.90;;;;;;;;;;2081581;28;20486;-71
2023/01/15 08:34:23;;;;;;;3.47;0.95;;;;;;;;;;2080244;28;20073;-71